sensor_id;sensor_type;location;lat;lon;timestamp;temperature;humidity
21762;DHT22;11203;50.870;20.682;2022-08-01T00:01:50;14.70;99.90
21762;DHT22;11203;50.870;20.682;2022-08-01T00:04:16;14.70;99.90
21762;DHT22;11203;50.870;20.682;2022-08-01T00:06:42;14.70;99.90
21762;DHT22;11203;50.870;20.682;2022-08-01T00:09:08;14.70;99.90
21762;DHT22;11203;50.870;20.682;2022-08-01T00:11:34;14.70;99.90
21762;DHT22;11203;50.870;20.682;2022-08-01T00:14:00;14.70;99.90
21762;DHT22;11203;50.870;20.682;2022-08-01T00:16:26;14.70;99.90
21762;DHT22;11203;50.870;20.682;2022-08-01T00:18:53;14.70;99.90
21762;DHT22;11203;50.870;20.682;2022-08-01T00:21:20;14.70;99.90
21762;DHT22;11203;50.870;20.682;2022-08-01T00:23:46;14.70;99.90
21762;DHT22;11203;50.870;20.682;2022-08-01T00:26:15;14.70;99.90
21762;DHT22;11203;50.870;20.682;2022-08-01T00:28:41;14.70;99.90
21762;DHT22;11203;50.870;20.682;2022-08-01T00:31:07;14.70;99.90
21762;DHT22;11203;50.870;20.682;2022-08-01T00:33:33;14.70;99.90
21762;DHT22;11203;50.870;20.682;2022-08-01T00:35:59;14.60;99.90
21762;DHT22;11203;50.870;20.682;2022-08-01T00:38:25;14.60;99.90
21762;DHT22;11203;50.870;20.682;2022-08-01T00:40:51;14.60;99.90
21762;DHT22;11203;50.870;20.682;2022-08-01T00:43:17;14.60;99.90
21762;DHT22;11203;50.870;20.682;2022-08-01T00:45:43;14.50;99.90
21762;DHT22;11203;50.870;20.682;2022-08-01T00:48:09;14.50;99.90
21762;DHT22;11203;50.870;20.682;2022-08-01T00:50:36;14.50;99.90
21762;DHT22;11203;50.870;20.682;2022-08-01T00:53:02;14.50;99.90
21762;DHT22;11203;50.870;20.682;2022-08-01T00:55:29;14.40;99.90
21762;DHT22;11203;50.870;20.682;2022-08-01T00:57:57;14.50;99.90
21762;DHT22;11203;50.870;20.682;2022-08-01T01:00:24;14.50;99.90
21762;DHT22;11203;50.870;20.682;2022-08-01T01:02:51;14.40;99.90
21762;DHT22;11203;50.870;20.682;2022-08-01T01:05:17;14.50;99.90
21762;DHT22;11203;50.870;20.682;2022-08-01T01:07:53;14.50;99.90
21762;DHT22;11203;50.870;20.682;2022-08-01T01:11:05;14.50;99.90
21762;DHT22;11203;50.870;20.682;2022-08-01T01:14:04;14.50;99.90
21762;DHT22;11203;50.870;20.682;2022-08-01T01:16:32;14.50;99.90
21762;DHT22;11203;50.870;20.682;2022-08-01T01:19:01;14.40;99.90
21762;DHT22;11203;50.870;20.682;2022-08-01T01:30:28;14.40;99.90
21762;DHT22;11203;50.870;20.682;2022-08-01T01:32:59;14.40;99.90
21762;DHT22;11203;50.870;20.682;2022-08-01T01:35:31;14.40;99.90
21762;DHT22;11203;50.870;20.682;2022-08-01T01:38:10;14.40;99.90
21762;DHT22;11203;50.870;20.682;2022-08-01T01:40:42;14.40;99.90
21762;DHT22;11203;50.870;20.682;2022-08-01T01:43:10;14.40;99.90
21762;DHT22;11203;50.870;20.682;2022-08-01T01:45:37;14.40;99.90
21762;DHT22;11203;50.870;20.682;2022-08-01T01:48:06;14.40;99.90
21762;DHT22;11203;50.870;20.682;2022-08-01T01:50:33;14.40;99.90
21762;DHT22;11203;50.870;20.682;2022-08-01T01:53:02;14.40;99.90
21762;DHT22;11203;50.870;20.682;2022-08-01T01:55:30;14.40;99.90
21762;DHT22;11203;50.870;20.682;2022-08-01T01:57:57;14.40;99.90
21762;DHT22;11203;50.870;20.682;2022-08-01T02:00:24;14.40;99.90
21762;DHT22;11203;50.870;20.682;2022-08-01T02:02:52;14.40;99.90
21762;DHT22;11203;50.870;20.682;2022-08-01T02:05:20;14.40;99.90
21762;DHT22;11203;50.870;20.682;2022-08-01T02:07:47;14.40;99.90
21762;DHT22;11203;50.870;20.682;2022-08-01T02:10:16;14.40;99.90
21762;DHT22;11203;50.870;20.682;2022-08-01T02:12:44;14.40;99.90
21762;DHT22;11203;50.870;20.682;2022-08-01T02:15:12;14.40;99.90
21762;DHT22;11203;50.870;20.682;2022-08-01T02:17:44;14.40;99.90
21762;DHT22;11203;50.870;20.682;2022-08-01T02:20:13;14.40;99.90
21762;DHT22;11203;50.870;20.682;2022-08-01T02:22:52;14.40;99.90
21762;DHT22;11203;50.870;20.682;2022-08-01T02:25:25;14.40;99.90
21762;DHT22;11203;50.870;20.682;2022-08-01T02:30:24;14.40;99.90
21762;DHT22;11203;50.870;20.682;2022-08-01T02:32:56;14.40;99.90
21762;DHT22;11203;50.870;20.682;2022-08-01T02:35:29;14.40;99.90
21762;DHT22;11203;50.870;20.682;2022-08-01T02:38:00;14.30;99.90
21762;DHT22;11203;50.870;20.682;2022-08-01T02:40:29;14.30;99.90
21762;DHT22;11203;50.870;20.682;2022-08-01T02:42:59;14.30;99.90
21762;DHT22;11203;50.870;20.682;2022-08-01T02:45:26;14.30;99.90
21762;DHT22;11203;50.870;20.682;2022-08-01T02:47:59;14.30;99.90
21762;DHT22;11203;50.870;20.682;2022-08-01T02:50:30;14.40;99.90
21762;DHT22;11203;50.870;20.682;2022-08-01T02:52:58;14.30;99.90
21762;DHT22;11203;50.870;20.682;2022-08-01T02:55:26;14.40;99.90
21762;DHT22;11203;50.870;20.682;2022-08-01T02:57:53;14.40;99.90
21762;DHT22;11203;50.870;20.682;2022-08-01T03:00:22;14.40;99.90
21762;DHT22;11203;50.870;20.682;2022-08-01T03:02:49;14.40;99.90
21762;DHT22;11203;50.870;20.682;2022-08-01T03:05:17;14.40;99.90
21762;DHT22;11203;50.870;20.682;2022-08-01T03:07:44;14.40;99.90
21762;DHT22;11203;50.870;20.682;2022-08-01T03:10:11;14.40;99.90
21762;DHT22;11203;50.870;20.682;2022-08-01T03:12:39;14.40;99.90
21762;DHT22;11203;50.870;20.682;2022-08-01T03:15:07;14.50;99.90
21762;DHT22;11203;50.870;20.682;2022-08-01T03:17:37;14.40;99.90
21762;DHT22;11203;50.870;20.682;2022-08-01T03:20:05;14.40;99.90
21762;DHT22;11203;50.870;20.682;2022-08-01T03:22:35;14.40;99.90
21762;DHT22;11203;50.870;20.682;2022-08-01T03:25:03;14.40;99.90
21762;DHT22;11203;50.870;20.682;2022-08-01T03:27:30;14.40;99.90
21762;DHT22;11203;50.870;20.682;2022-08-01T03:29:58;14.40;99.90
21762;DHT22;11203;50.870;20.682;2022-08-01T03:32:26;14.40;99.90
21762;DHT22;11203;50.870;20.682;2022-08-01T03:34:53;14.40;99.90
21762;DHT22;11203;50.870;20.682;2022-08-01T03:37:25;14.40;99.90
21762;DHT22;11203;50.870;20.682;2022-08-01T03:40:00;14.30;99.90
21762;DHT22;11203;50.870;20.682;2022-08-01T03:42:53;14.40;99.90
21762;DHT22;11203;50.870;20.682;2022-08-01T03:45:26;14.30;99.90
21762;DHT22;11203;50.870;20.682;2022-08-01T03:48:00;14.30;99.90
21762;DHT22;11203;50.870;20.682;2022-08-01T03:50:29;14.40;99.90
21762;DHT22;11203;50.870;20.682;2022-08-01T03:53:02;14.40;99.90
21762;DHT22;11203;50.870;20.682;2022-08-01T03:55:31;14.40;99.90
21762;DHT22;11203;50.870;20.682;2022-08-01T03:57:58;14.40;99.90
21762;DHT22;11203;50.870;20.682;2022-08-01T04:00:26;14.40;99.90
21762;DHT22;11203;50.870;20.682;2022-08-01T04:02:53;14.40;99.90
21762;DHT22;11203;50.870;20.682;2022-08-01T04:05:19;14.40;99.90
21762;DHT22;11203;50.870;20.682;2022-08-01T04:07:47;14.50;99.90
21762;DHT22;11203;50.870;20.682;2022-08-01T04:10:24;14.40;99.90
21762;DHT22;11203;50.870;20.682;2022-08-01T04:12:51;14.50;99.90
21762;DHT22;11203;50.870;20.682;2022-08-01T04:15:18;14.50;99.90
21762;DHT22;11203;50.870;20.682;2022-08-01T04:17:46;14.50;99.90
21762;DHT22;11203;50.870;20.682;2022-08-01T04:20:12;14.50;99.90
21762;DHT22;11203;50.870;20.682;2022-08-01T04:22:39;14.50;99.90
21762;DHT22;11203;50.870;20.682;2022-08-01T04:25:11;14.50;99.90
21762;DHT22;11203;50.870;20.682;2022-08-01T04:27:41;14.50;99.90
21762;DHT22;11203;50.870;20.682;2022-08-01T04:30:10;14.50;99.90
21762;DHT22;11203;50.870;20.682;2022-08-01T04:32:38;14.50;99.90
21762;DHT22;11203;50.870;20.682;2022-08-01T04:35:08;14.50;99.90
21762;DHT22;11203;50.870;20.682;2022-08-01T04:37:37;14.50;99.90
21762;DHT22;11203;50.870;20.682;2022-08-01T04:40:07;14.50;99.90
21762;DHT22;11203;50.870;20.682;2022-08-01T04:42:34;14.50;99.90
21762;DHT22;11203;50.870;20.682;2022-08-01T04:45:00;14.50;99.90
21762;DHT22;11203;50.870;20.682;2022-08-01T04:47:27;14.50;99.90
21762;DHT22;11203;50.870;20.682;2022-08-01T04:49:55;14.50;99.90
21762;DHT22;11203;50.870;20.682;2022-08-01T04:52:22;14.50;99.90
21762;DHT22;11203;50.870;20.682;2022-08-01T04:54:48;14.50;99.90
21762;DHT22;11203;50.870;20.682;2022-08-01T04:57:14;14.50;99.90
21762;DHT22;11203;50.870;20.682;2022-08-01T04:59:43;14.50;99.90
21762;DHT22;11203;50.870;20.682;2022-08-01T05:02:18;14.50;99.90
21762;DHT22;11203;50.870;20.682;2022-08-01T05:04:46;14.50;99.90
21762;DHT22;11203;50.870;20.682;2022-08-01T05:07:12;14.50;99.90
21762;DHT22;11203;50.870;20.682;2022-08-01T05:09:39;14.50;99.90
21762;DHT22;11203;50.870;20.682;2022-08-01T05:12:11;14.50;99.90
21762;DHT22;11203;50.870;20.682;2022-08-01T05:14:42;14.50;99.90
21762;DHT22;11203;50.870;20.682;2022-08-01T05:17:08;14.50;99.90
21762;DHT22;11203;50.870;20.682;2022-08-01T05:19:36;14.50;99.90
21762;DHT22;11203;50.870;20.682;2022-08-01T05:22:08;14.60;99.90
21762;DHT22;11203;50.870;20.682;2022-08-01T05:24:39;14.60;99.90
21762;DHT22;11203;50.870;20.682;2022-08-01T05:27:06;14.60;99.90
21762;DHT22;11203;50.870;20.682;2022-08-01T05:29:34;14.70;99.90
21762;DHT22;11203;50.870;20.682;2022-08-01T05:32:00;14.80;99.90
21762;DHT22;11203;50.870;20.682;2022-08-01T05:34:26;14.90;99.90
21762;DHT22;11203;50.870;20.682;2022-08-01T05:36:52;15.00;99.90
21762;DHT22;11203;50.870;20.682;2022-08-01T05:39:19;15.00;99.90
21762;DHT22;11203;50.870;20.682;2022-08-01T05:41:45;15.10;99.90
21762;DHT22;11203;50.870;20.682;2022-08-01T05:44:11;15.10;99.90
21762;DHT22;11203;50.870;20.682;2022-08-01T05:46:38;15.20;99.90
21762;DHT22;11203;50.870;20.682;2022-08-01T05:49:05;15.20;99.90
21762;DHT22;11203;50.870;20.682;2022-08-01T05:51:31;15.20;99.90
21762;DHT22;11203;50.870;20.682;2022-08-01T05:53:57;15.40;99.90
21762;DHT22;11203;50.870;20.682;2022-08-01T05:56:24;15.40;99.90
21762;DHT22;11203;50.870;20.682;2022-08-01T05:58:52;15.40;99.90
21762;DHT22;11203;50.870;20.682;2022-08-01T06:01:18;15.50;99.90
21762;DHT22;11203;50.870;20.682;2022-08-01T06:03:45;15.60;99.90
21762;DHT22;11203;50.870;20.682;2022-08-01T06:06:11;15.50;99.90
21762;DHT22;11203;50.870;20.682;2022-08-01T06:08:40;15.60;99.90
21762;DHT22;11203;50.870;20.682;2022-08-01T06:11:06;15.60;99.90
21762;DHT22;11203;50.870;20.682;2022-08-01T06:13:32;15.70;99.90
21762;DHT22;11203;50.870;20.682;2022-08-01T06:15:58;15.80;99.90
21762;DHT22;11203;50.870;20.682;2022-08-01T06:18:24;15.70;99.90
21762;DHT22;11203;50.870;20.682;2022-08-01T06:20:50;15.80;99.90
21762;DHT22;11203;50.870;20.682;2022-08-01T06:23:16;16.00;99.90
21762;DHT22;11203;50.870;20.682;2022-08-01T06:25:42;15.90;99.90
21762;DHT22;11203;50.870;20.682;2022-08-01T06:28:09;16.00;99.90
21762;DHT22;11203;50.870;20.682;2022-08-01T06:30:35;15.90;99.90
21762;DHT22;11203;50.870;20.682;2022-08-01T06:33:01;16.10;99.90
21762;DHT22;11203;50.870;20.682;2022-08-01T06:35:28;16.10;99.90
21762;DHT22;11203;50.870;20.682;2022-08-01T06:37:56;16.20;99.90
21762;DHT22;11203;50.870;20.682;2022-08-01T06:40:23;16.20;99.90
21762;DHT22;11203;50.870;20.682;2022-08-01T06:42:50;16.10;99.90
21762;DHT22;11203;50.870;20.682;2022-08-01T06:45:16;16.10;99.90
21762;DHT22;11203;50.870;20.682;2022-08-01T06:47:44;16.30;99.90
21762;DHT22;11203;50.870;20.682;2022-08-01T06:50:10;16.40;99.90
21762;DHT22;11203;50.870;20.682;2022-08-01T06:52:37;16.50;99.90
21762;DHT22;11203;50.870;20.682;2022-08-01T06:55:04;16.70;99.90
21762;DHT22;11203;50.870;20.682;2022-08-01T06:57:30;16.70;99.90
21762;DHT22;11203;50.870;20.682;2022-08-01T06:59:56;16.60;99.90
21762;DHT22;11203;50.870;20.682;2022-08-01T07:02:23;16.60;99.90
21762;DHT22;11203;50.870;20.682;2022-08-01T07:04:49;16.80;99.90
21762;DHT22;11203;50.870;20.682;2022-08-01T07:07:15;16.50;99.90
21762;DHT22;11203;50.870;20.682;2022-08-01T07:09:41;16.50;99.90
21762;DHT22;11203;50.870;20.682;2022-08-01T07:12:08;16.70;99.90
21762;DHT22;11203;50.870;20.682;2022-08-01T07:14:35;16.80;99.90
21762;DHT22;11203;50.870;20.682;2022-08-01T07:17:01;16.80;99.90
21762;DHT22;11203;50.870;20.682;2022-08-01T07:19:27;16.60;99.90
21762;DHT22;11203;50.870;20.682;2022-08-01T07:21:53;16.60;99.90
21762;DHT22;11203;50.870;20.682;2022-08-01T07:24:20;16.70;99.90
21762;DHT22;11203;50.870;20.682;2022-08-01T07:26:48;16.80;99.90
21762;DHT22;11203;50.870;20.682;2022-08-01T07:29:14;16.80;99.90
21762;DHT22;11203;50.870;20.682;2022-08-01T07:31:40;16.70;99.90
21762;DHT22;11203;50.870;20.682;2022-08-01T07:34:06;16.80;99.90
21762;DHT22;11203;50.870;20.682;2022-08-01T07:36:32;16.80;99.90
21762;DHT22;11203;50.870;20.682;2022-08-01T07:38:59;16.90;99.90
21762;DHT22;11203;50.870;20.682;2022-08-01T07:41:25;16.90;99.90
21762;DHT22;11203;50.870;20.682;2022-08-01T07:43:51;17.00;99.90
21762;DHT22;11203;50.870;20.682;2022-08-01T07:46:17;17.00;99.90
21762;DHT22;11203;50.870;20.682;2022-08-01T07:48:43;17.20;99.90
21762;DHT22;11203;50.870;20.682;2022-08-01T07:51:09;17.30;99.90
21762;DHT22;11203;50.870;20.682;2022-08-01T07:53:36;17.40;99.90
21762;DHT22;11203;50.870;20.682;2022-08-01T07:56:03;17.30;99.90
21762;DHT22;11203;50.870;20.682;2022-08-01T07:58:32;17.50;99.90
21762;DHT22;11203;50.870;20.682;2022-08-01T08:01:00;17.60;99.90
21762;DHT22;11203;50.870;20.682;2022-08-01T08:03:27;17.60;99.90
21762;DHT22;11203;50.870;20.682;2022-08-01T08:05:53;17.60;99.90
21762;DHT22;11203;50.870;20.682;2022-08-01T08:08:19;17.60;99.90
21762;DHT22;11203;50.870;20.682;2022-08-01T08:10:45;17.70;99.90
21762;DHT22;11203;50.870;20.682;2022-08-01T08:13:11;17.80;99.90
21762;DHT22;11203;50.870;20.682;2022-08-01T08:15:37;17.90;99.90
21762;DHT22;11203;50.870;20.682;2022-08-01T08:18:04;18.00;99.90
21762;DHT22;11203;50.870;20.682;2022-08-01T08:20:30;18.00;99.90
21762;DHT22;11203;50.870;20.682;2022-08-01T08:22:56;18.10;99.90
21762;DHT22;11203;50.870;20.682;2022-08-01T08:25:26;18.20;99.90
21762;DHT22;11203;50.870;20.682;2022-08-01T08:27:52;18.20;99.90
21762;DHT22;11203;50.870;20.682;2022-08-01T08:30:19;18.40;99.90
21762;DHT22;11203;50.870;20.682;2022-08-01T08:32:45;18.40;99.90
21762;DHT22;11203;50.870;20.682;2022-08-01T08:35:11;18.40;99.90
21762;DHT22;11203;50.870;20.682;2022-08-01T08:37:38;18.50;99.90
21762;DHT22;11203;50.870;20.682;2022-08-01T08:40:04;18.60;99.90
21762;DHT22;11203;50.870;20.682;2022-08-01T08:42:31;18.60;99.90
21762;DHT22;11203;50.870;20.682;2022-08-01T08:44:57;18.80;99.90
21762;DHT22;11203;50.870;20.682;2022-08-01T08:47:24;18.70;99.90
21762;DHT22;11203;50.870;20.682;2022-08-01T08:49:53;18.80;99.90
21762;DHT22;11203;50.870;20.682;2022-08-01T08:52:22;19.00;99.90
21762;DHT22;11203;50.870;20.682;2022-08-01T08:54:50;19.00;31.30
21762;DHT22;11203;50.870;20.682;2022-08-01T08:57:19;19.00;1.00
21762;DHT22;11203;50.870;20.682;2022-08-01T08:59:46;19.10;44.10
21762;DHT22;11203;50.870;20.682;2022-08-01T09:02:13;19.20;71.70
21762;DHT22;11203;50.870;20.682;2022-08-01T09:04:39;19.30;1.00
21762;DHT22;11203;50.870;20.682;2022-08-01T09:07:06;19.30;1.00
21762;DHT22;11203;50.870;20.682;2022-08-01T09:09:34;19.30;99.90
21762;DHT22;11203;50.870;20.682;2022-08-01T09:12:00;19.40;1.00
21762;DHT22;11203;50.870;20.682;2022-08-01T09:14:26;19.50;1.00
21762;DHT22;11203;50.870;20.682;2022-08-01T09:17:07;19.60;99.90
21762;DHT22;11203;50.870;20.682;2022-08-01T09:19:44;19.70;99.90
21762;DHT22;11203;50.870;20.682;2022-08-01T09:22:17;19.70;99.90
21762;DHT22;11203;50.870;20.682;2022-08-01T09:25:09;19.90;1.00
21762;DHT22;11203;50.870;20.682;2022-08-01T09:27:37;19.90;1.00
21762;DHT22;11203;50.870;20.682;2022-08-01T09:30:18;19.90;1.00
21762;DHT22;11203;50.870;20.682;2022-08-01T09:33:01;20.10;99.90
21762;DHT22;11203;50.870;20.682;2022-08-01T09:38:25;20.30;1.00
21762;DHT22;11203;50.870;20.682;2022-08-01T09:40:59;20.30;99.90
21762;DHT22;11203;50.870;20.682;2022-08-01T09:43:27;20.50;99.90
21762;DHT22;11203;50.870;20.682;2022-08-01T09:45:57;20.60;99.90
21762;DHT22;11203;50.870;20.682;2022-08-01T09:48:26;20.60;1.00
21762;DHT22;11203;50.870;20.682;2022-08-01T09:50:53;20.60;1.00
21762;DHT22;11203;50.870;20.682;2022-08-01T09:53:19;20.60;99.90
21762;DHT22;11203;50.870;20.682;2022-08-01T09:55:45;20.80;99.90
21762;DHT22;11203;50.870;20.682;2022-08-01T09:58:12;20.80;1.00
21762;DHT22;11203;50.870;20.682;2022-08-01T10:00:39;20.80;1.00
21762;DHT22;11203;50.870;20.682;2022-08-01T10:03:25;20.90;1.00
21762;DHT22;11203;50.870;20.682;2022-08-01T10:05:52;21.10;1.00
21762;DHT22;11203;50.870;20.682;2022-08-01T10:08:19;21.10;1.00
21762;DHT22;11203;50.870;20.682;2022-08-01T10:11:09;21.20;1.00
21762;DHT22;11203;50.870;20.682;2022-08-01T10:13:36;21.30;1.00
21762;DHT22;11203;50.870;20.682;2022-08-01T10:16:02;21.30;1.00
21762;DHT22;11203;50.870;20.682;2022-08-01T10:18:32;21.30;1.00
21762;DHT22;11203;50.870;20.682;2022-08-01T10:21:04;21.30;1.00
21762;DHT22;11203;50.870;20.682;2022-08-01T10:23:35;21.30;1.00
21762;DHT22;11203;50.870;20.682;2022-08-01T10:26:05;21.30;1.00
21762;DHT22;11203;50.870;20.682;2022-08-01T10:28:34;21.20;1.00
21762;DHT22;11203;50.870;20.682;2022-08-01T10:31:01;21.30;1.00
21762;DHT22;11203;50.870;20.682;2022-08-01T10:33:29;21.30;99.90
21762;DHT22;11203;50.870;20.682;2022-08-01T10:35:56;21.40;1.00
21762;DHT22;11203;50.870;20.682;2022-08-01T10:38:23;21.50;99.90
21762;DHT22;11203;50.870;20.682;2022-08-01T10:40:49;21.50;1.00
21762;DHT22;11203;50.870;20.682;2022-08-01T10:43:17;21.40;99.90
21762;DHT22;11203;50.870;20.682;2022-08-01T10:45:43;21.50;99.90
21762;DHT22;11203;50.870;20.682;2022-08-01T10:48:18;21.60;99.90
21762;DHT22;11203;50.870;20.682;2022-08-01T10:50:52;21.60;99.90
21762;DHT22;11203;50.870;20.682;2022-08-01T10:53:22;21.60;99.90
21762;DHT22;11203;50.870;20.682;2022-08-01T11:01:21;21.70;99.90
21762;DHT22;11203;50.870;20.682;2022-08-01T11:04:10;21.80;99.90
21762;DHT22;11203;50.870;20.682;2022-08-01T11:06:42;21.90;99.90
21762;DHT22;11203;50.870;20.682;2022-08-01T11:09:29;21.90;99.90
21762;DHT22;11203;50.870;20.682;2022-08-01T11:14:24;22.10;99.90
21762;DHT22;11203;50.870;20.682;2022-08-01T11:16:50;22.20;99.90
21762;DHT22;11203;50.870;20.682;2022-08-01T11:19:16;22.20;99.90
21762;DHT22;11203;50.870;20.682;2022-08-01T11:27:20;22.30;99.90
21762;DHT22;11203;50.870;20.682;2022-08-01T11:32:53;22.40;99.90
21762;DHT22;11203;50.870;20.682;2022-08-01T11:35:24;22.40;99.90
21762;DHT22;11203;50.870;20.682;2022-08-01T11:37:53;22.50;99.90
21762;DHT22;11203;50.870;20.682;2022-08-01T11:40:23;22.50;99.90
21762;DHT22;11203;50.870;20.682;2022-08-01T11:43:29;22.50;1.00
21762;DHT22;11203;50.870;20.682;2022-08-01T11:45:55;22.50;1.00
21762;DHT22;11203;50.870;20.682;2022-08-01T11:48:23;22.50;1.00
21762;DHT22;11203;50.870;20.682;2022-08-01T11:50:55;22.50;1.00
21762;DHT22;11203;50.870;20.682;2022-08-01T11:53:22;22.60;1.00
21762;DHT22;11203;50.870;20.682;2022-08-01T11:55:51;22.70;1.00
21762;DHT22;11203;50.870;20.682;2022-08-01T11:58:25;22.80;1.00
21762;DHT22;11203;50.870;20.682;2022-08-01T12:00:56;22.80;1.00
21762;DHT22;11203;50.870;20.682;2022-08-01T12:03:25;22.70;1.00
21762;DHT22;11203;50.870;20.682;2022-08-01T12:05:54;22.80;1.00
21762;DHT22;11203;50.870;20.682;2022-08-01T12:08:31;22.80;1.00
21762;DHT22;11203;50.870;20.682;2022-08-01T12:11:00;22.80;1.00
21762;DHT22;11203;50.870;20.682;2022-08-01T12:13:27;23.00;1.00
21762;DHT22;11203;50.870;20.682;2022-08-01T12:15:54;23.20;1.00
21762;DHT22;11203;50.870;20.682;2022-08-01T12:18:20;23.20;1.00
21762;DHT22;11203;50.870;20.682;2022-08-01T12:20:46;23.30;1.00
21762;DHT22;11203;50.870;20.682;2022-08-01T12:23:14;23.30;1.00
21762;DHT22;11203;50.870;20.682;2022-08-01T12:25:41;23.30;1.00
21762;DHT22;11203;50.870;20.682;2022-08-01T12:28:12;23.30;1.00
21762;DHT22;11203;50.870;20.682;2022-08-01T12:30:39;23.40;1.00
21762;DHT22;11203;50.870;20.682;2022-08-01T12:33:09;23.50;1.00
21762;DHT22;11203;50.870;20.682;2022-08-01T12:35:36;23.50;1.00
21762;DHT22;11203;50.870;20.682;2022-08-01T12:38:07;23.40;1.00
21762;DHT22;11203;50.870;20.682;2022-08-01T12:40:42;23.40;1.00
21762;DHT22;11203;50.870;20.682;2022-08-01T12:43:09;23.40;1.00
21762;DHT22;11203;50.870;20.682;2022-08-01T12:45:45;23.50;1.00
21762;DHT22;11203;50.870;20.682;2022-08-01T12:48:14;23.50;1.00
21762;DHT22;11203;50.870;20.682;2022-08-01T12:50:46;23.50;1.00
21762;DHT22;11203;50.870;20.682;2022-08-01T12:53:14;23.40;1.00
21762;DHT22;11203;50.870;20.682;2022-08-01T12:55:45;23.50;1.00
21762;DHT22;11203;50.870;20.682;2022-08-01T12:58:14;23.40;1.00
21762;DHT22;11203;50.870;20.682;2022-08-01T13:00:43;23.40;1.00
21762;DHT22;11203;50.870;20.682;2022-08-01T13:03:13;23.40;1.00
21762;DHT22;11203;50.870;20.682;2022-08-01T13:05:45;23.50;1.00
21762;DHT22;11203;50.870;20.682;2022-08-01T13:08:22;23.60;1.00
21762;DHT22;11203;50.870;20.682;2022-08-01T13:11:09;23.60;1.00
21762;DHT22;11203;50.870;20.682;2022-08-01T13:13:45;23.80;1.00
21762;DHT22;11203;50.870;20.682;2022-08-01T13:16:13;23.80;1.00
21762;DHT22;11203;50.870;20.682;2022-08-01T13:18:40;23.80;1.00
21762;DHT22;11203;50.870;20.682;2022-08-01T13:23:33;23.60;1.00
21762;DHT22;11203;50.870;20.682;2022-08-01T13:25:59;23.80;1.00
21762;DHT22;11203;50.870;20.682;2022-08-01T13:28:27;23.70;1.00
21762;DHT22;11203;50.870;20.682;2022-08-01T13:31:02;23.70;1.00
21762;DHT22;11203;50.870;20.682;2022-08-01T13:33:46;23.70;1.00
21762;DHT22;11203;50.870;20.682;2022-08-01T13:36:13;23.80;1.00
21762;DHT22;11203;50.870;20.682;2022-08-01T13:38:41;23.70;1.00
21762;DHT22;11203;50.870;20.682;2022-08-01T13:41:27;23.80;1.00
21762;DHT22;11203;50.870;20.682;2022-08-01T13:43:53;23.80;1.00
21762;DHT22;11203;50.870;20.682;2022-08-01T13:46:20;23.80;1.00
21762;DHT22;11203;50.870;20.682;2022-08-01T13:48:46;23.80;1.00
21762;DHT22;11203;50.870;20.682;2022-08-01T13:51:12;23.80;1.00
21762;DHT22;11203;50.870;20.682;2022-08-01T13:53:38;23.80;1.00
21762;DHT22;11203;50.870;20.682;2022-08-01T13:56:04;23.80;1.00
21762;DHT22;11203;50.870;20.682;2022-08-01T13:58:30;23.70;1.00
21762;DHT22;11203;50.870;20.682;2022-08-01T14:00:56;23.70;1.00
21762;DHT22;11203;50.870;20.682;2022-08-01T14:03:22;23.80;1.00
21762;DHT22;11203;50.870;20.682;2022-08-01T14:05:48;23.80;1.00
21762;DHT22;11203;50.870;20.682;2022-08-01T14:08:15;23.90;1.00
21762;DHT22;11203;50.870;20.682;2022-08-01T14:10:41;23.90;1.00
21762;DHT22;11203;50.870;20.682;2022-08-01T14:13:07;23.90;1.00
21762;DHT22;11203;50.870;20.682;2022-08-01T14:15:33;23.90;1.00
21762;DHT22;11203;50.870;20.682;2022-08-01T14:17:59;23.90;1.00
21762;DHT22;11203;50.870;20.682;2022-08-01T14:20:26;24.00;1.00
21762;DHT22;11203;50.870;20.682;2022-08-01T14:22:52;23.80;1.00
21762;DHT22;11203;50.870;20.682;2022-08-01T14:25:18;23.80;1.00
21762;DHT22;11203;50.870;20.682;2022-08-01T14:27:44;23.90;1.00
21762;DHT22;11203;50.870;20.682;2022-08-01T14:30:11;24.00;1.00
21762;DHT22;11203;50.870;20.682;2022-08-01T14:32:38;24.10;1.00
21762;DHT22;11203;50.870;20.682;2022-08-01T14:35:05;24.20;1.00
21762;DHT22;11203;50.870;20.682;2022-08-01T14:37:32;24.10;1.00
21762;DHT22;11203;50.870;20.682;2022-08-01T14:39:59;24.20;1.00
21762;DHT22;11203;50.870;20.682;2022-08-01T14:42:29;24.10;1.00
21762;DHT22;11203;50.870;20.682;2022-08-01T14:44:55;24.00;1.00
21762;DHT22;11203;50.870;20.682;2022-08-01T14:47:21;24.00;1.00
21762;DHT22;11203;50.870;20.682;2022-08-01T14:49:48;24.00;1.00
21762;DHT22;11203;50.870;20.682;2022-08-01T14:52:16;23.90;1.00
21762;DHT22;11203;50.870;20.682;2022-08-01T14:54:45;23.90;1.00
21762;DHT22;11203;50.870;20.682;2022-08-01T14:57:11;23.90;1.00
21762;DHT22;11203;50.870;20.682;2022-08-01T14:59:37;23.80;1.00
21762;DHT22;11203;50.870;20.682;2022-08-01T15:02:03;23.80;1.00
21762;DHT22;11203;50.870;20.682;2022-08-01T15:04:30;23.80;1.00
21762;DHT22;11203;50.870;20.682;2022-08-01T15:06:56;23.80;1.00
21762;DHT22;11203;50.870;20.682;2022-08-01T15:09:22;23.80;1.00
21762;DHT22;11203;50.870;20.682;2022-08-01T15:11:51;23.80;1.00
21762;DHT22;11203;50.870;20.682;2022-08-01T15:14:18;23.90;1.00
21762;DHT22;11203;50.870;20.682;2022-08-01T15:17:03;24.00;1.00
21762;DHT22;11203;50.870;20.682;2022-08-01T15:19:29;24.10;1.00
21762;DHT22;11203;50.870;20.682;2022-08-01T15:21:54;24.30;1.00
21762;DHT22;11203;50.870;20.682;2022-08-01T15:24:21;24.20;1.00
21762;DHT22;11203;50.870;20.682;2022-08-01T15:26:46;24.20;99.90
21762;DHT22;11203;50.870;20.682;2022-08-01T15:29:12;24.20;1.00
21762;DHT22;11203;50.870;20.682;2022-08-01T15:31:39;24.00;99.90
21762;DHT22;11203;50.870;20.682;2022-08-01T15:34:05;23.90;99.90
21762;DHT22;11203;50.870;20.682;2022-08-01T15:36:31;23.90;99.90
21762;DHT22;11203;50.870;20.682;2022-08-01T15:38:57;23.90;1.00
21762;DHT22;11203;50.870;20.682;2022-08-01T15:41:23;24.10;1.00
21762;DHT22;11203;50.870;20.682;2022-08-01T15:43:49;24.20;1.00
21762;DHT22;11203;50.870;20.682;2022-08-01T15:46:15;24.20;99.90
21762;DHT22;11203;50.870;20.682;2022-08-01T15:48:41;24.00;99.90
21762;DHT22;11203;50.870;20.682;2022-08-01T15:51:07;24.00;99.90
21762;DHT22;11203;50.870;20.682;2022-08-01T15:53:33;23.90;99.90
21762;DHT22;11203;50.870;20.682;2022-08-01T15:55:59;24.00;1.00
21762;DHT22;11203;50.870;20.682;2022-08-01T15:58:25;24.10;1.00
21762;DHT22;11203;50.870;20.682;2022-08-01T16:00:51;24.10;1.00
21762;DHT22;11203;50.870;20.682;2022-08-01T16:03:17;24.00;99.90